Aeroporto :
LOGIN :

Iscrizione | Disclaimer

   EN    FR    IT 

 










Sommario :    VFR   VFR Marginale   IFR   IFR Intensivo   IFR Molto Intensivo
Visibilità : 
Base nubi : 
>= 8 km
>= 3000ft
5 / 8 km
1000 / 3000 ft
1500m / 5 km
500 / 1000 ft
800 / 1500m
200 / 500 ft
< 800m
< 200 ft
Simboli :   Temporali  Nebbia  Neve Forte  Precipitazioni Forti  Vento > 20 kt
SIGMETs :   Varie  Temporali  Ghiacco  Turbolenza  Onda orograficha  Ceneri Vulcaniche






- Altitudine del aeroporto : -11 ft
- Codice IATA : AMS


EHAM - Amsterdam Schiphol

ULTIMO METAR :
  • 251525Z 28014KT 250V320 9999 VCSH FEW020CB SCT028 06/03 Q0996 NOSIG

METARs OBSOLETI :
  • 251455Z 26014KT 8000 -SHRAGS FEW020CB SCT023 08/04 Q0996 TEMPO 6000
  • 251425Z 26020KT 230V290 9999 VCSH FEW022 FEW025CB 08/03 Q0996 TEMPO 6000 -SHRA
  • 251355Z 26018KT 9999 FEW023 FEW025CB 08/04 Q0997 TEMPO 6000 -SHRA
  • 251325Z 26014KT 230V290 9999 FEW023 FEW025CB SCT033 07/04 Q0997 TEMPO 6000 -SHRA
  • 251255Z 24017KT 9000 VCSH FEW023 FEW025CB SCT033 07/03 Q0997 TEMPO 6000 -SHRA

TAF TAF EHAM
Valido dal 25 a 12 ore il 26 a 18 ore UTC


251127Z 2512/2618 25020G30KT 9999 SCT025
TEMPO 2512/2616 7000 -SHRAGS FEW025CB
PROB40
TEMPO 2513/2516 25023G35KT 4500 SHRAGS TSRAGS SCT020CB BKN025
BECMG 2514/2517 25012G22KT
BECMG 2517/2520 22010KT
PROB40
TEMPO 2520/2601 25015G25KT 3500 SHRAGS TSRAGS SCT012 SCT020CB BKN025
BECMG 2523/2602 29012KT
PROB40
TEMPO 2601/2614 30018G28KT 2500 SHGSRASN TSGSRASN BKN012 SCT020CB BKN025
BECMG 2608/2611 29017G27KT



MetMap, La meteo Aeronautica in un colpo d'occhio ! - Copyright ORBIFLY Dicembre 2007 - Disclaimer

ORBIFLY MET'MAP TEAM :

Programmazione e sviluppo : Alexandra Zaïnal
Concezione : Baudouin d'Aumeries
Aiuto per la programmazione : Marc-Olivier Méhu
Supporto tecnico e logistico : Manuel Goepfert
Aiuto per la traduzione : Arnaldo La Scala

Contatto : metmap@orbifly.com




FONTI E CREDITI :

   NOAA